createdAt,value
2019-04-28T00:01:05.957Z,56.48
2019-04-28T00:03:34.026Z,56.50
2019-04-28T00:06:02.079Z,56.49
2019-04-28T00:08:31.888Z,56.51
2019-04-28T00:11:01.833Z,56.55
2019-04-28T00:13:31.970Z,56.58
2019-04-28T00:16:01.598Z,56.62
2019-04-28T00:18:31.713Z,56.63
2019-04-28T00:21:28.376Z,56.65
2019-04-28T00:24:15.689Z,56.63
2019-04-28T00:26:49.414Z,56.62
2019-04-28T00:29:17.542Z,56.62
2019-04-28T00:31:45.716Z,56.62
2019-04-28T00:34:14.362Z,56.59
2019-04-28T00:36:44.324Z,56.58
2019-04-28T00:39:12.752Z,56.62
2019-04-28T00:41:42.027Z,56.60
2019-04-28T00:44:11.909Z,56.56
2019-04-28T00:46:41.661Z,56.54
2019-04-28T00:49:11.751Z,56.55
2019-04-28T00:51:41.534Z,56.58
2019-04-28T00:54:11.498Z,56.55
2019-04-28T00:56:41.795Z,56.55
2019-04-28T00:59:11.791Z,56.52
2019-04-28T01:01:51.165Z,56.54
2019-04-28T01:04:19.304Z,56.52
2019-04-28T01:06:47.330Z,56.50
2019-04-28T01:09:15.520Z,56.50
2019-04-28T01:11:43.685Z,56.50
2019-04-28T01:14:11.775Z,56.52
2019-04-28T01:16:46.075Z,56.53
2019-04-28T01:19:20.249Z,56.53
2019-04-28T01:22:12.348Z,56.56
2019-04-28T01:24:40.840Z,56.55
2019-04-28T01:27:46.832Z,56.58
2019-04-28T01:30:40.252Z,56.59
2019-04-28T01:33:18.283Z,56.59
2019-04-28T01:35:46.520Z,56.62
2019-04-28T01:38:14.569Z,56.65
2019-04-28T01:40:42.580Z,56.67
2019-04-28T01:43:10.787Z,56.68
2019-04-28T01:45:39.898Z,56.68
2019-04-28T01:48:10.118Z,56.70
2019-04-28T01:50:39.896Z,56.71
2019-04-28T01:53:09.733Z,56.73
2019-04-28T01:55:39.344Z,56.72
2019-04-28T01:58:09.589Z,56.74
2019-04-28T02:00:38.248Z,56.77
2019-04-28T02:03:06.637Z,56.72
2019-04-28T02:05:34.675Z,56.72
2019-04-28T02:08:02.865Z,56.68
2019-04-28T02:10:31.237Z,56.67
2019-04-28T02:12:59.919Z,56.67
2019-04-28T02:15:30.183Z,56.65
2019-04-28T02:18:00.093Z,56.65
2019-04-28T02:20:30.122Z,56.62
2019-04-28T02:23:21.555Z,56.63
2019-04-28T02:25:49.881Z,56.66
2019-04-28T02:28:19.817Z,56.70
2019-04-28T02:30:53.162Z,56.76
2019-04-28T02:33:17.791Z,56.76
2019-04-28T02:35:47.102Z,56.80
2019-04-28T02:38:15.324Z,56.81
2019-04-28T02:40:43.323Z,56.82
2019-04-28T02:43:11.648Z,56.86
2019-04-28T02:45:41.236Z,56.84
2019-04-28T02:48:15.573Z,56.86
2019-04-28T02:51:07.591Z,56.93
2019-04-28T02:53:40.847Z,56.95
2019-04-28T02:56:11.245Z,57.00
2019-04-28T02:58:41.533Z,57.02
2019-04-28T03:01:18.555Z,57.04
2019-04-28T03:03:40.829Z,57.05
2019-04-28T03:06:10.801Z,57.12
2019-04-28T03:08:40.513Z,57.16
2019-04-28T03:11:10.686Z,57.19
2019-04-28T03:13:41.108Z,57.22
2019-04-28T03:16:10.813Z,57.25
2019-04-28T03:18:41.063Z,57.26
2019-04-28T03:21:11.219Z,57.29
2019-04-28T03:23:40.524Z,57.30
2019-04-28T03:26:34.331Z,57.29
2019-04-28T03:29:10.820Z,57.32
2019-04-28T03:32:13.851Z,57.32
2019-04-28T03:34:15.035Z,57.29
2019-04-28T03:36:43.040Z,57.30
2019-04-28T03:39:11.275Z,57.33
2019-04-28T03:41:40.582Z,57.38
2019-04-28T03:44:11.274Z,57.43
2019-04-28T03:46:45.001Z,57.46
2019-04-28T03:49:31.052Z,57.50
2019-04-28T03:52:01.079Z,57.54
2019-04-28T03:54:30.357Z,57.55
2019-04-28T03:57:01.124Z,57.60
2019-04-28T03:59:31.145Z,57.63
2019-04-28T04:02:02.830Z,57.63
2019-04-28T04:04:32.241Z,57.65
2019-04-28T04:07:01.511Z,57.67
2019-04-28T04:09:41.392Z,57.68
2019-04-28T04:12:30.750Z,57.71
2019-04-28T04:15:06.458Z,57.71
2019-04-28T04:18:01.287Z,57.71
2019-04-28T04:20:31.062Z,57.71
2019-04-28T04:23:01.435Z,57.70
2019-04-28T04:25:31.381Z,57.70
2019-04-28T04:28:02.985Z,57.73
2019-04-28T04:30:31.267Z,57.76
2019-04-28T04:33:01.330Z,57.77
2019-04-28T04:35:31.546Z,57.81
2019-04-28T04:38:00.443Z,57.84
2019-04-28T04:40:41.314Z,57.85
2019-04-28T04:43:26.559Z,57.85
2019-04-28T04:46:17.861Z,57.87
2019-04-28T04:48:45.931Z,57.88
2019-04-28T04:51:13.938Z,57.87
2019-04-28T04:53:42.019Z,57.89
2019-04-28T04:56:10.602Z,57.89
2019-04-28T04:58:40.761Z,57.89
2019-04-28T05:01:15.816Z,57.89
2019-04-28T05:03:47.099Z,57.86
2019-04-28T05:06:32.977Z,57.86
2019-04-28T05:09:01.153Z,57.88
2019-04-28T05:11:31.099Z,57.88
2019-04-28T05:13:59.695Z,57.89
2019-04-28T05:16:29.794Z,57.88
2019-04-28T05:18:59.916Z,57.87
2019-04-28T05:21:31.145Z,57.90
2019-04-28T05:24:17.334Z,57.88
2019-04-28T05:26:47.768Z,57.87
2019-04-28T05:29:21.818Z,57.85
2019-04-28T05:31:46.312Z,57.86
2019-04-28T05:34:14.410Z,57.86
2019-04-28T05:36:44.692Z,57.87
2019-04-28T05:39:12.901Z,57.91
2019-04-28T05:41:40.994Z,57.93
2019-04-28T05:44:10.054Z,57.99
2019-04-28T05:46:40.054Z,57.98
2019-04-28T05:49:30.387Z,57.96
2019-04-28T05:52:03.573Z,57.96
2019-04-28T05:54:49.552Z,57.95
2019-04-28T05:57:33.052Z,57.90
2019-04-28T06:00:13.685Z,57.90
2019-04-28T06:02:54.170Z,57.87
2019-04-28T06:05:14.455Z,57.89
2019-04-28T06:07:56.601Z,57.89
2019-04-28T06:10:25.249Z,57.92
2019-04-28T06:12:54.950Z,57.86
2019-04-28T06:15:23.033Z,57.84
2019-04-28T06:17:51.061Z,57.84
2019-04-28T06:20:20.094Z,57.92
2019-04-28T06:22:48.267Z,58.13
2019-04-28T06:25:16.331Z,58.28
2019-04-28T06:27:44.786Z,58.31
2019-04-28T06:30:13.487Z,58.35
2019-04-28T06:32:41.537Z,58.35
2019-04-28T06:35:10.007Z,58.39
2019-04-28T06:37:38.084Z,58.43
2019-04-28T06:40:06.362Z,58.45
2019-04-28T06:42:34.469Z,58.45
2019-04-28T06:45:02.549Z,58.42
2019-04-28T06:47:31.020Z,58.42
2019-04-28T06:49:58.996Z,58.42
2019-04-28T06:52:27.085Z,58.45
2019-04-28T06:54:55.367Z,58.49
2019-04-28T06:57:23.433Z,58.55
2019-04-28T06:59:51.743Z,58.66
2019-04-28T07:02:19.824Z,58.66
2019-04-28T07:04:47.871Z,58.63
2019-04-28T07:07:16.206Z,58.63
2019-04-28T07:09:44.251Z,58.66
2019-04-28T07:12:12.309Z,58.70
2019-04-28T07:14:40.348Z,58.73
2019-04-28T07:17:08.414Z,58.71
2019-04-28T07:19:36.448Z,58.67
2019-04-28T07:22:29.974Z,58.65
2019-04-28T07:24:58.006Z,58.60
2019-04-28T07:27:26.319Z,58.47
2019-04-28T07:29:54.325Z,58.38
2019-04-28T07:32:22.509Z,58.28
2019-04-28T07:34:50.554Z,58.23
2019-04-28T07:37:18.672Z,58.16
2019-04-28T07:39:47.690Z,58.11
2019-04-28T07:42:15.770Z,58.05
2019-04-28T07:44:43.795Z,58.00
2019-04-28T07:47:12.136Z,57.99
2019-04-28T07:49:40.504Z,57.95
2019-04-28T07:52:35.944Z,57.97
2019-04-28T07:55:04.753Z,57.93
2019-04-28T07:57:33.086Z,57.96
2019-04-28T08:00:01.139Z,57.93
2019-04-28T08:02:29.770Z,57.88
2019-04-28T08:04:58.514Z,57.88
2019-04-28T08:07:26.574Z,57.90
2019-04-28T08:09:54.568Z,57.86
2019-04-28T08:12:22.929Z,57.89
2019-04-28T08:14:50.978Z,57.94
2019-04-28T08:17:19.019Z,57.96
2019-04-28T08:19:47.157Z,57.99
2019-04-28T08:22:15.389Z,57.95
2019-04-28T08:24:43.401Z,57.91
2019-04-28T08:27:11.461Z,57.84
2019-04-28T08:29:40.462Z,57.79
2019-04-28T08:32:16.621Z,57.80
2019-04-28T08:34:44.664Z,57.76
2019-04-28T08:37:12.717Z,57.77
2019-04-28T08:39:40.721Z,57.76
2019-04-28T08:42:08.796Z,57.71
2019-04-28T08:44:36.813Z,57.69
2019-04-28T08:47:04.863Z,57.56
2019-04-28T08:49:34.036Z,57.44
2019-04-28T08:52:03.134Z,57.33
2019-04-28T08:54:32.205Z,57.20
2019-04-28T08:57:00.755Z,57.04
2019-04-28T08:59:28.761Z,56.80
2019-04-28T09:01:56.818Z,56.67
2019-04-28T09:04:24.878Z,56.64
2019-04-28T09:06:53.288Z,56.40
2019-04-28T09:09:21.871Z,56.22
2019-04-28T09:11:49.890Z,56.21
2019-04-28T09:14:17.934Z,56.25
2019-04-28T09:16:45.940Z,56.16
2019-04-28T09:19:13.994Z,55.94
2019-04-28T09:21:42.016Z,55.76
2019-04-28T09:24:10.061Z,55.61
2019-04-28T09:26:38.069Z,55.37
2019-04-28T09:29:06.116Z,55.37
2019-04-28T09:31:34.147Z,55.26
2019-04-28T09:34:02.188Z,55.23
2019-04-28T09:36:30.408Z,55.14
2019-04-28T09:38:59.409Z,54.99
2019-04-28T09:41:27.411Z,54.84
2019-04-28T09:44:07.254Z,54.63
2019-04-28T09:46:37.710Z,54.51
2019-04-28T09:49:05.992Z,54.55
2019-04-28T09:51:34.010Z,54.73
2019-04-28T09:54:02.085Z,54.52
2019-04-28T09:56:30.216Z,54.36
2019-04-28T09:58:59.559Z,54.66
2019-04-28T10:01:28.278Z,54.72
2019-04-28T10:03:56.753Z,54.58
2019-04-28T10:06:24.767Z,54.76
2019-04-28T10:08:52.846Z,54.77
2019-04-28T10:11:30.232Z,54.62
2019-04-28T10:13:51.095Z,54.59
2019-04-28T10:16:20.506Z,54.53
2019-04-28T10:18:48.569Z,54.48
2019-04-28T10:21:17.739Z,54.51
2019-04-28T10:23:46.820Z,54.41
2019-04-28T10:26:14.863Z,54.30
2019-04-28T10:28:42.939Z,54.37
2019-04-28T10:31:13.336Z,54.40
2019-04-28T10:33:42.869Z,54.29
2019-04-28T10:36:11.866Z,54.05
2019-04-28T10:38:41.817Z,53.89
2019-04-28T10:41:19.604Z,53.59
2019-04-28T10:43:47.786Z,53.32
2019-04-28T10:46:16.921Z,52.96
2019-04-28T10:48:45.408Z,52.68
2019-04-28T10:51:14.594Z,52.70
2019-04-28T10:53:42.670Z,52.50
2019-04-28T10:56:10.678Z,52.22
2019-04-28T10:58:41.737Z,52.04
2019-04-28T11:01:09.774Z,51.81
2019-04-28T11:03:37.920Z,51.63
2019-04-28T11:06:06.265Z,51.41
2019-04-28T11:08:48.166Z,51.09
2019-04-28T11:11:20.137Z,50.81
2019-04-28T11:13:48.304Z,50.62
2019-04-28T11:16:18.898Z,50.55
2019-04-28T11:18:46.916Z,50.45
2019-04-28T11:21:15.297Z,50.43
2019-04-28T11:23:44.315Z,50.37
2019-04-28T11:26:12.470Z,50.50
2019-04-28T11:28:40.804Z,50.71
2019-04-28T11:31:08.830Z,50.92
2019-04-28T11:33:56.296Z,51.06
2019-04-28T11:36:24.382Z,51.07
2019-04-28T11:38:52.526Z,50.99
2019-04-28T11:41:20.680Z,51.09
2019-04-28T11:43:48.735Z,51.31
2019-04-28T11:46:19.061Z,51.59
2019-04-28T11:48:47.090Z,51.79
2019-04-28T11:51:15.267Z,52.00
2019-04-28T11:53:43.389Z,52.22
2019-04-28T11:56:11.755Z,52.38
2019-04-28T11:58:39.872Z,52.51
2019-04-28T12:01:08.440Z,52.58
2019-04-28T12:03:36.613Z,52.62
2019-04-28T12:06:04.871Z,52.55
2019-04-28T12:08:33.460Z,52.46
2019-04-28T12:11:26.636Z,52.33
2019-04-28T12:14:23.479Z,52.14
2019-04-28T12:17:11.201Z,51.90
2019-04-28T12:19:43.541Z,51.71
2019-04-28T12:22:11.779Z,51.49
2019-04-28T12:24:39.923Z,51.28
2019-04-28T12:27:07.978Z,51.12
2019-04-28T12:29:35.994Z,50.99
2019-04-28T12:32:04.084Z,50.83
2019-04-28T12:34:33.160Z,50.73
2019-04-28T12:37:01.220Z,50.82
2019-04-28T12:39:29.619Z,51.01
2019-04-28T12:41:57.669Z,50.68
2019-04-28T12:44:25.698Z,50.33
2019-04-28T12:46:53.794Z,50.31
2019-04-28T12:49:32.891Z,50.26
2019-04-28T12:52:01.079Z,50.40
2019-04-28T12:54:31.182Z,50.45
2019-04-28T12:56:59.265Z,50.46
2019-04-28T12:59:33.478Z,50.41
2019-04-28T13:02:14.576Z,50.30
2019-04-28T13:04:54.336Z,50.29
2019-04-28T13:07:22.404Z,50.29
2019-04-28T13:09:50.423Z,50.25
2019-04-28T13:12:18.499Z,50.18
2019-04-28T13:14:46.529Z,50.15
2019-04-28T13:17:14.607Z,50.00
2019-04-28T13:19:42.635Z,49.81
2019-04-28T13:22:10.691Z,49.74
2019-04-28T13:24:38.721Z,49.68
2019-04-28T13:27:06.884Z,49.72
2019-04-28T13:29:34.908Z,49.65
2019-04-28T13:32:02.987Z,49.47
2019-04-28T13:34:40.598Z,49.31
2019-04-28T13:37:09.152Z,48.82
2019-04-28T13:39:49.721Z,48.31
2019-04-28T13:42:17.823Z,47.83
2019-04-28T13:44:53.178Z,47.57
2019-04-28T13:47:22.828Z,47.45
2019-04-28T13:50:12.257Z,47.48
2019-04-28T13:52:44.679Z,47.35
2019-04-28T13:55:28.118Z,47.03
2019-04-28T13:57:58.825Z,46.85
2019-04-28T14:00:36.916Z,46.82
2019-04-28T14:03:33.735Z,46.83
2019-04-28T14:06:05.724Z,46.83
2019-04-28T14:08:34.808Z,46.91
2019-04-28T14:11:03.031Z,46.95
2019-04-28T14:13:31.139Z,47.03
2019-04-28T14:15:59.175Z,47.28
2019-04-28T14:18:27.295Z,47.56
2019-04-28T14:20:55.466Z,48.04
2019-04-28T14:23:23.679Z,47.97
2019-04-28T14:26:01.067Z,47.90
2019-04-28T14:28:29.098Z,47.62
2019-04-28T14:30:57.140Z,47.39
2019-04-28T14:33:25.293Z,47.06
2019-04-28T14:35:53.342Z,46.81
2019-04-28T14:38:21.519Z,46.64
2019-04-28T14:40:49.944Z,46.56
2019-04-28T14:43:18.077Z,46.39
2019-04-28T14:45:46.281Z,46.24
2019-04-28T14:48:14.541Z,46.12
2019-04-28T14:50:42.541Z,46.23
2019-04-28T14:53:10.836Z,46.17
2019-04-28T14:55:39.033Z,46.16
2019-04-28T14:58:17.325Z,46.04
2019-04-28T15:00:50.420Z,45.96
2019-04-28T15:03:18.635Z,45.92
2019-04-28T15:05:59.291Z,45.90
2019-04-28T15:08:40.823Z,46.15
2019-04-28T15:11:31.065Z,46.10
2019-04-28T15:13:59.214Z,45.98
2019-04-28T15:16:27.241Z,46.13
2019-04-28T15:18:55.307Z,46.16
2019-04-28T15:21:23.651Z,46.23
2019-04-28T15:23:51.705Z,46.30
2019-04-28T15:26:19.704Z,46.37
2019-04-28T15:28:47.808Z,46.45
2019-04-28T15:31:16.145Z,46.45
2019-04-28T15:33:44.493Z,46.53
2019-04-28T15:36:12.516Z,46.64
2019-04-28T15:38:40.589Z,46.68
2019-04-28T15:41:20.916Z,46.68
2019-04-28T15:43:39.072Z,46.79
2019-04-28T15:46:07.197Z,46.93
2019-04-28T15:48:35.986Z,47.19
2019-04-28T15:51:04.050Z,47.27
2019-04-28T15:53:34.453Z,47.24
2019-04-28T15:56:21.803Z,47.33
2019-04-28T15:58:49.873Z,47.43
2019-04-28T16:01:17.900Z,47.38
2019-04-28T16:03:46.226Z,47.61
2019-04-28T16:06:14.249Z,47.74
2019-04-28T16:08:42.316Z,47.69
2019-04-28T16:11:10.385Z,47.72
2019-04-28T16:13:38.466Z,47.95
2019-04-28T16:16:06.537Z,48.08
2019-04-28T16:18:35.746Z,48.10
2019-04-28T16:21:03.883Z,48.09
2019-04-28T16:23:32.025Z,48.11
2019-04-28T16:26:00.064Z,48.15
2019-04-28T16:28:28.349Z,48.31
2019-04-28T16:30:56.346Z,48.39
2019-04-28T16:33:24.430Z,48.46
2019-04-28T16:35:52.573Z,48.50
2019-04-28T16:38:20.838Z,48.50
2019-04-28T16:40:48.895Z,48.48
2019-04-28T16:43:18.172Z,48.50
2019-04-28T16:45:46.394Z,48.54
2019-04-28T16:48:14.471Z,48.55
2019-04-28T16:50:42.553Z,48.59
2019-04-28T16:53:10.592Z,48.58
2019-04-28T16:55:57.687Z,48.58
2019-04-28T16:58:48.461Z,48.63
2019-04-28T17:01:33.610Z,48.70
2019-04-28T17:04:01.659Z,48.74
2019-04-28T17:06:29.839Z,48.82
2019-04-28T17:08:58.246Z,48.86
2019-04-28T17:11:26.318Z,48.79
2019-04-28T17:13:54.980Z,48.66
2019-04-28T17:16:23.332Z,48.58
2019-04-28T17:18:53.239Z,48.53
2019-04-28T17:21:21.264Z,48.49
2019-04-28T17:23:49.452Z,48.42
2019-04-28T17:26:17.529Z,48.44
2019-04-28T17:28:45.609Z,48.42
2019-04-28T17:31:14.780Z,48.42
2019-04-28T17:33:42.837Z,48.41
2019-04-28T17:36:10.882Z,48.46
2019-04-28T17:38:38.900Z,48.46
2019-04-28T17:41:07.271Z,48.41
2019-04-28T17:43:36.714Z,48.41
2019-04-28T17:46:05.044Z,48.45
2019-04-28T17:48:36.252Z,48.51
2019-04-28T17:51:05.085Z,48.54
2019-04-28T17:53:33.363Z,48.58
2019-04-28T17:56:01.400Z,48.62
2019-04-28T17:58:29.572Z,48.62
2019-04-28T18:01:15.038Z,48.64
2019-04-28T18:03:52.667Z,48.67
2019-04-28T18:06:21.482Z,48.67
2019-04-28T18:08:49.565Z,48.69
2019-04-28T18:11:18.615Z,48.71
2019-04-28T18:13:46.700Z,48.74
2019-04-28T18:16:37.033Z,48.75
2019-04-28T18:19:14.050Z,48.74
2019-04-28T18:21:43.267Z,48.74
2019-04-28T18:24:11.486Z,48.70
2019-04-28T18:26:39.587Z,48.68
2019-04-28T18:29:07.900Z,48.69
2019-04-28T18:31:54.227Z,48.71
2019-04-28T18:34:37.674Z,48.78
2019-04-28T18:37:36.337Z,48.81
2019-04-28T18:40:19.645Z,48.86
2019-04-28T18:42:54.551Z,48.90
2019-04-28T18:45:31.601Z,48.94
2019-04-28T18:48:06.521Z,48.95
2019-04-28T18:50:36.319Z,48.97
2019-04-28T18:53:04.953Z,49.01
2019-04-28T18:55:33.615Z,49.04
2019-04-28T18:58:03.569Z,49.08
2019-04-28T19:00:35.905Z,49.14
2019-04-28T19:03:04.290Z,49.17
2019-04-28T19:05:35.062Z,49.24
2019-04-28T19:08:17.687Z,49.27
2019-04-28T19:11:04.147Z,49.29
2019-04-28T19:13:35.432Z,49.32
2019-04-28T19:16:39.956Z,49.34
2019-04-28T19:19:09.389Z,49.42
2019-04-28T19:21:37.442Z,49.44
2019-04-28T19:24:05.854Z,49.51
2019-04-28T19:26:58.048Z,49.61
2019-04-28T19:29:26.322Z,49.67
2019-04-28T19:31:54.426Z,49.74
2019-04-28T19:34:22.559Z,49.81
2019-04-28T19:36:58.542Z,49.92
2019-04-28T19:39:26.775Z,50.10
2019-04-28T19:41:54.961Z,50.21
2019-04-28T19:44:23.877Z,50.32
2019-04-28T19:47:01.841Z,50.43
2019-04-28T19:49:30.236Z,50.55
2019-04-28T19:51:58.380Z,50.69
2019-04-28T19:54:30.593Z,50.81
2019-04-28T19:57:08.032Z,50.87
2019-04-28T20:00:02.328Z,50.91
2019-04-28T20:02:39.600Z,50.98
2019-04-28T20:05:07.840Z,51.07
2019-04-28T20:07:36.187Z,51.17
2019-04-28T20:10:05.231Z,51.29
2019-04-28T20:12:33.250Z,51.37
2019-04-28T20:15:01.550Z,51.47
2019-04-28T20:17:29.879Z,51.52
2019-04-28T20:19:58.276Z,51.58
2019-04-28T20:22:26.455Z,51.64
2019-04-28T20:24:56.105Z,51.74
2019-04-28T20:27:24.310Z,51.77
2019-04-28T20:29:52.487Z,51.80
2019-04-28T20:32:20.625Z,51.88
2019-04-28T20:34:48.787Z,51.90
2019-04-28T20:37:24.635Z,51.94
2019-04-28T20:39:58.580Z,51.96
2019-04-28T20:42:45.770Z,52.01
2019-04-28T20:45:15.260Z,52.03
2019-04-28T20:47:43.304Z,52.07
2019-04-28T20:50:11.583Z,52.15
2019-04-28T20:52:39.756Z,52.23
2019-04-28T20:55:08.044Z,52.27
2019-04-28T20:57:37.169Z,52.28
2019-04-28T21:00:06.972Z,52.34
2019-04-28T21:02:38.096Z,52.37
2019-04-28T21:05:06.385Z,52.44
2019-04-28T21:07:34.527Z,52.48
2019-04-28T21:10:02.981Z,52.50
2019-04-28T21:12:32.353Z,52.51
2019-04-28T21:15:00.395Z,52.56
2019-04-28T21:17:28.431Z,52.62
2019-04-28T21:19:56.801Z,52.64
2019-04-28T21:22:25.375Z,52.65
2019-04-28T21:24:53.433Z,52.69
2019-04-28T21:27:21.556Z,52.70
2019-04-28T21:29:49.911Z,52.72
2019-04-28T21:32:18.058Z,52.76
2019-04-28T21:34:46.511Z,52.80
2019-04-28T21:37:14.589Z,52.84
2019-04-28T21:39:42.878Z,52.89
2019-04-28T21:42:14.977Z,52.90
2019-04-28T21:45:12.957Z,52.92
2019-04-28T21:47:41.104Z,52.96
2019-04-28T21:50:10.406Z,52.93
2019-04-28T21:52:39.216Z,52.99
2019-04-28T21:55:07.332Z,53.03
2019-04-28T21:57:35.451Z,53.09
2019-04-28T22:00:07.764Z,53.12
2019-04-28T22:02:36.041Z,53.16
2019-04-28T22:05:04.843Z,53.22
2019-04-28T22:07:32.924Z,53.25
2019-04-28T22:10:01.077Z,53.28
2019-04-28T22:12:29.242Z,53.32
2019-04-28T22:14:57.580Z,53.34
2019-04-28T22:17:25.784Z,53.39
2019-04-28T22:19:53.821Z,53.45
2019-04-28T22:22:21.923Z,53.48
2019-04-28T22:25:02.373Z,53.53
2019-04-28T22:27:33.989Z,53.58
2019-04-28T22:30:02.115Z,53.59
2019-04-28T22:32:32.105Z,53.65
2019-04-28T22:35:01.575Z,53.72
2019-04-28T22:37:30.055Z,53.76
2019-04-28T22:39:58.437Z,53.79
2019-04-28T22:42:26.509Z,53.84
2019-04-28T22:44:55.649Z,53.89
2019-04-28T22:47:23.695Z,53.90
2019-04-28T22:49:51.749Z,53.94
2019-04-28T22:52:19.851Z,53.98
2019-04-28T22:55:07.479Z,54.01
2019-04-28T22:58:01.118Z,54.04
2019-04-28T23:00:47.983Z,54.04
2019-04-28T23:03:36.883Z,54.01
2019-04-28T23:06:04.897Z,54.07
2019-04-28T23:08:32.990Z,54.13
2019-04-28T23:11:00.999Z,54.19
2019-04-28T23:13:29.076Z,54.25
2019-04-28T23:15:57.087Z,54.30
2019-04-28T23:18:25.564Z,54.34
2019-04-28T23:20:57.124Z,54.36
2019-04-28T23:23:25.285Z,54.36
2019-04-28T23:25:53.338Z,54.39
2019-04-28T23:28:21.478Z,54.39
2019-04-28T23:30:51.358Z,54.39
2019-04-28T23:33:20.035Z,54.41
2019-04-28T23:35:48.443Z,54.42
2019-04-28T23:38:16.509Z,54.45
2019-04-28T23:40:58.502Z,54.47
2019-04-28T23:43:26.697Z,54.50
2019-04-28T23:45:55.120Z,54.51
2019-04-28T23:48:23.486Z,54.56
2019-04-28T23:51:04.311Z,54.58
2019-04-28T23:54:04.369Z,54.64
2019-04-28T23:56:32.593Z,54.64
2019-04-28T23:59:00.933Z,54.64
